Time;durP1;ratioP1;P1;durP2;ratioP2;P2;SDS_P1;SDS_P2;PMS_P1;PMS_P2;Temp;Humidity;BMP_temperature;BMP_pressure;BME280_temperature;BME280_humidity;BME280_pressure;Samples;Min_cycle;Max_cycle;Signal;HPM_P1;HPM_P2
2023/03/31 00:01:14;;;;;;;9.53;1.73;;;12.80;99.90;;;;;;5026151;28;20462;-75
2023/03/31 00:04:03;;;;;;;9.07;2.10;;;12.80;99.90;;;;;;5038715;28;20424;-75
2023/03/31 00:06:49;;;;;;;8.20;2.10;;;12.80;99.90;;;;;;5033694;28;20444;-74
2023/03/31 00:09:36;;;;;;;7.43;1.53;;;12.80;99.90;;;;;;5020137;28;20508;-73
2023/03/31 00:12:22;;;;;;;5.57;2.10;;;12.80;99.90;;;;;;5025677;28;20513;-75
2023/03/31 00:15:08;;;;;;;7.33;1.77;;;12.80;99.90;;;;;;5034081;28;20490;-75
2023/03/31 00:17:59;;;;;;;7.57;2.50;;;12.80;99.90;;;;;;5024078;28;20572;-75
2023/03/31 00:20:44;;;;;;;8.70;1.70;;;12.80;99.90;;;;;;5021038;28;20997;-72
2023/03/31 00:23:30;;;;;;;9.77;2.80;;;12.90;99.90;;;;;;5021570;28;20487;-75
2023/03/31 00:26:16;;;;;;;5.70;2.00;;;12.90;99.90;;;;;;5025933;28;20498;-75
2023/03/31 00:29:02;;;;;;;8.67;2.53;;;12.90;99.90;;;;;;5032680;28;20441;-73
2023/03/31 00:31:48;;;;;;;6.00;1.63;;;12.90;99.90;;;;;;5040791;28;20450;-74
2023/03/31 00:34:35;;;;;;;13.93;2.43;;;12.90;99.90;;;;;;5024339;28;20470;-74
2023/03/31 00:37:21;;;;;;;8.77;1.97;;;12.90;99.90;;;;;;5024486;28;20503;-74
2023/03/31 00:40:08;;;;;;;4.70;2.07;;;12.90;99.90;;;;;;5027927;28;20466;-75
2023/03/31 00:42:54;;;;;;;10.10;2.10;;;12.90;99.90;;;;;;5033951;28;20419;-75
2023/03/31 00:45:40;;;;;;;10.73;2.20;;;13.00;99.90;;;;;;5030275;28;20991;-75
2023/03/31 00:48:26;;;;;;;11.87;2.50;;;13.00;99.90;;;;;;5031091;28;20429;-75
2023/03/31 00:51:14;;;;;;;5.20;2.10;;;13.00;99.90;;;;;;5026523;28;20415;-75
2023/03/31 00:54:05;;;;;;;6.70;1.93;;;13.00;99.90;;;;;;5033905;28;20451;-74
2023/03/31 00:56:54;;;;;;;5.80;1.80;;;13.10;99.90;;;;;;5033843;28;20463;-75
2023/03/31 00:59:42;;;;;;;7.67;2.20;;;13.10;99.90;;;;;;5037947;28;20413;-75
2023/03/31 01:02:29;;;;;;;7.83;2.53;;;13.10;99.90;;;;;;5029375;28;20465;-75
2023/03/31 01:05:15;;;;;;;11.50;2.67;;;13.10;99.90;;;;;;5022338;28;20444;-75
2023/03/31 01:08:04;;;;;;;8.10;2.17;;;13.10;99.90;;;;;;5025381;28;20451;-75
2023/03/31 01:10:53;;;;;;;4.30;1.63;;;13.10;99.90;;;;;;5029695;28;20438;-75
2023/03/31 01:13:41;;;;;;;8.50;1.90;;;13.10;99.90;;;;;;5030214;28;20429;-75
2023/03/31 01:16:26;;;;;;;11.53;1.90;;;13.10;99.90;;;;;;5025183;28;20982;-75
2023/03/31 01:19:20;;;;;;;8.93;2.50;;;13.00;99.90;;;;;;5030992;28;20594;-75
2023/03/31 01:22:59;;;;;;;8.67;3.00;;;13.10;99.90;;;;;;5036366;28;20473;-75
2023/03/31 01:26:12;;;;;;;8.80;2.50;;;13.10;99.90;;;;;;5020755;28;20494;-73
2023/03/31 01:29:05;;;;;;;6.20;2.23;;;13.10;99.90;;;;;;5013744;28;20462;-74
2023/03/31 01:32:13;;;;;;;6.70;2.30;;;13.00;99.90;;;;;;5031638;28;21008;-75
2023/03/31 01:35:32;;;;;;;15.57;2.20;;;13.00;99.90;;;;;;5024252;28;20439;-74
2023/03/31 01:38:54;;;;;;;13.67;2.60;;;12.90;99.90;;;;;;5032649;28;21035;-74
2023/03/31 01:41:52;;;;;;;9.60;2.17;;;12.90;99.90;;;;;;5027560;28;20445;-74
2023/03/31 01:44:44;;;;;;;10.33;2.00;;;12.90;99.90;;;;;;5027273;28;20445;-73
2023/03/31 01:47:39;;;;;;;7.30;2.47;;;12.90;99.90;;;;;;5029260;28;20869;-75
2023/03/31 01:50:30;;;;;;;6.80;1.90;;;13.00;99.90;;;;;;5033656;28;20430;-75
2023/03/31 01:53:21;;;;;;;6.90;2.17;;;12.90;99.90;;;;;;5036105;28;21006;-74
2023/03/31 01:56:15;;;;;;;6.73;1.77;;;12.80;99.90;;;;;;5027983;28;20454;-71
2023/03/31 01:59:07;;;;;;;9.73;2.53;;;12.80;99.90;;;;;;5035805;28;20759;-74
2023/03/31 02:01:58;;;;;;;9.67;2.60;;;12.90;99.90;;;;;;5034934;28;20475;-73
2023/03/31 02:04:48;;;;;;;12.20;2.20;;;12.90;99.90;;;;;;5035101;28;20454;-75
2023/03/31 02:07:37;;;;;;;9.83;1.80;;;13.00;99.90;;;;;;5034451;28;20443;-75
2023/03/31 02:10:25;;;;;;;7.20;1.77;;;13.00;99.90;;;;;;5042650;28;20531;-75
2023/03/31 02:13:13;;;;;;;7.83;2.20;;;13.10;99.90;;;;;;5031730;28;20483;-75
2023/03/31 02:16:06;;;;;;;14.23;1.93;;;13.10;99.90;;;;;;5030922;28;20466;-74
2023/03/31 02:19:01;;;;;;;9.53;2.20;;;13.10;99.90;;;;;;5038297;28;20423;-75
2023/03/31 02:21:48;;;;;;;13.37;2.40;;;13.10;99.90;;;;;;5037212;28;20524;-74
2023/03/31 02:24:37;;;;;;;14.00;3.10;;;13.10;99.90;;;;;;5043191;28;20445;-73
2023/03/31 02:27:25;;;;;;;6.73;2.20;;;13.20;99.90;;;;;;5028418;28;20502;-71
2023/03/31 02:30:13;;;;;;;8.93;1.90;;;13.20;99.90;;;;;;5036971;28;21261;-73
2023/03/31 02:33:03;;;;;;;10.60;2.07;;;13.10;99.90;;;;;;5036270;28;20440;-74
2023/03/31 02:35:49;;;;;;;9.33;2.27;;;13.00;99.90;;;;;;5026293;28;21085;-74
2023/03/31 02:38:37;;;;;;;8.70;3.10;;;13.00;99.90;;;;;;5036596;28;20446;-75
2023/03/31 02:41:23;;;;;;;7.87;2.20;;;12.80;99.90;;;;;;5027683;28;20461;-72
2023/03/31 02:44:09;;;;;;;4.20;1.53;;;12.80;99.90;;;;;;5035276;28;20675;-71
2023/03/31 02:46:54;;;;;;;10.93;2.60;;;12.90;99.90;;;;;;5033982;28;20789;-71
2023/03/31 02:49:47;;;;;;;6.90;2.20;;;12.80;99.90;;;;;;5028154;28;20460;-72
2023/03/31 02:53:01;;;;;;;8.50;2.50;;;12.70;99.90;;;;;;5035030;28;20416;-72
2023/03/31 02:56:01;;;;;;;13.70;2.23;;;12.70;99.90;;;;;;5024950;28;20554;-71
2023/03/31 02:59:00;;;;;;;6.10;2.10;;;12.60;99.90;;;;;;5026228;28;20930;-72
2023/03/31 03:01:57;;;;;;;8.93;2.00;;;12.50;99.90;;;;;;5026012;28;20456;-74
2023/03/31 03:05:10;;;;;;;9.90;1.97;;;12.50;99.90;;;;;;5025848;28;23128;-72
2023/03/31 03:08:04;;;;;;;7.20;2.60;;;12.50;99.90;;;;;;5043677;28;20564;-72
2023/03/31 03:11:02;;;;;;;6.90;1.93;;;12.40;99.90;;;;;;5030608;28;20986;-73
2023/03/31 03:13:51;;;;;;;9.47;1.80;;;12.30;99.90;;;;;;5031141;28;20456;-71
2023/03/31 03:16:41;;;;;;;7.27;2.30;;;12.30;99.90;;;;;;5026437;28;20477;-72
2023/03/31 03:19:26;;;;;;;9.10;1.80;;;12.30;99.90;;;;;;5030312;28;20427;-73
2023/03/31 03:22:13;;;;;;;5.40;1.90;;;12.20;99.90;;;;;;5028356;28;20470;-72
2023/03/31 03:24:58;;;;;;;12.17;3.10;;;12.20;99.90;;;;;;5028499;28;20975;-72
2023/03/31 03:27:44;;;;;;;10.80;4.80;;;12.10;99.90;;;;;;5033342;28;20593;-71
2023/03/31 03:30:30;;;;;;;10.80;2.20;;;12.10;99.90;;;;;;5029396;28;20497;-72
2023/03/31 03:33:16;;;;;;;9.70;1.93;;;12.10;99.90;;;;;;5036565;28;20447;-73
2023/03/31 03:36:02;;;;;;;9.03;1.80;;;12.10;99.90;;;;;;5031788;28;20472;-71
2023/03/31 03:38:49;;;;;;;6.63;1.90;;;12.20;99.90;;;;;;5032381;28;20452;-72
2023/03/31 03:41:36;;;;;;;10.47;2.43;;;12.30;99.90;;;;;;5040718;28;20475;-73
2023/03/31 03:44:21;;;;;;;4.47;1.37;;;12.30;99.90;;;;;;5029015;28;20638;-73
2023/03/31 03:47:06;;;;;;;11.30;2.43;;;12.30;99.90;;;;;;5028646;28;20807;-71
2023/03/31 03:49:52;;;;;;;11.47;2.10;;;12.30;99.90;;;;;;5028933;28;21175;-71
2023/03/31 03:52:38;;;;;;;5.87;2.30;;;12.30;99.90;;;;;;5030079;28;20796;-73
2023/03/31 03:55:25;;;;;;;4.90;1.40;;;12.30;99.90;;;;;;5023591;28;20464;-72
2023/03/31 03:58:11;;;;;;;5.23;1.73;;;12.30;99.90;;;;;;5034162;28;20970;-72
2023/03/31 04:00:57;;;;;;;10.67;2.30;;;12.30;99.90;;;;;;5032931;28;20515;-72
2023/03/31 04:03:42;;;;;;;8.50;2.50;;;12.20;99.90;;;;;;5031230;28;20458;-71
2023/03/31 04:06:28;;;;;;;6.53;2.20;;;12.20;99.90;;;;;;5031649;28;20501;-72
2023/03/31 04:09:14;;;;;;;9.13;1.40;;;12.20;99.90;;;;;;5038294;28;20658;-73
2023/03/31 04:12:01;;;;;;;5.87;2.50;;;12.10;99.90;;;;;;5036521;28;20560;-72
2023/03/31 04:14:46;;;;;;;10.43;2.00;;;12.00;99.90;;;;;;5031563;28;20588;-72
2023/03/31 04:17:33;;;;;;;5.93;1.50;;;11.90;99.90;;;;;;5024969;28;20467;-73
2023/03/31 04:20:19;;;;;;;13.47;2.20;;;11.90;99.90;;;;;;5026457;28;20490;-72
2023/03/31 04:23:08;;;;;;;6.90;1.50;;;11.80;99.90;;;;;;5035520;28;20474;-74
2023/03/31 04:25:54;;;;;;;7.20;1.40;;;11.70;99.90;;;;;;5025589;28;20475;-72
2023/03/31 04:28:45;;;;;;;10.63;1.80;;;11.60;99.90;;;;;;5039307;28;20442;-71
2023/03/31 04:31:30;;;;;;;4.80;1.73;;;11.60;99.90;;;;;;5025403;28;20459;-72
2023/03/31 04:34:16;;;;;;;9.03;2.00;;;11.60;99.90;;;;;;5029663;28;20455;-72
2023/03/31 04:37:02;;;;;;;5.10;1.40;;;11.50;99.90;;;;;;5032556;28;20455;-72
2023/03/31 04:39:49;;;;;;;4.10;1.40;;;11.60;99.90;;;;;;5025865;28;20788;-72
2023/03/31 04:42:34;;;;;;;7.93;1.40;;;11.60;99.90;;;;;;5036903;28;20529;-71
2023/03/31 04:45:21;;;;;;;6.17;2.03;;;11.60;99.90;;;;;;5025165;28;20592;-71
2023/03/31 04:48:07;;;;;;;6.37;1.87;;;11.60;99.90;;;;;;5033894;28;20441;-73
2023/03/31 04:50:53;;;;;;;7.50;2.20;;;11.60;99.90;;;;;;5033060;28;20481;-72
2023/03/31 04:53:39;;;;;;;6.70;2.00;;;11.60;99.90;;;;;;5029446;28;20445;-75
2023/03/31 04:56:25;;;;;;;4.83;1.77;;;11.60;99.90;;;;;;5024897;28;20467;-72
2023/03/31 04:59:11;;;;;;;5.13;1.47;;;11.60;99.90;;;;;;5026053;28;20454;-71
2023/03/31 05:01:58;;;;;;;6.27;2.00;;;11.60;99.90;;;;;;5032134;28;20471;-72
2023/03/31 05:04:45;;;;;;;12.10;2.00;;;11.50;99.90;;;;;;5025467;28;20439;-73
2023/03/31 05:07:30;;;;;;;15.13;2.53;;;11.50;99.90;;;;;;5040616;28;20436;-72
2023/03/31 05:10:16;;;;;;;8.43;1.93;;;11.50;99.90;;;;;;5028958;28;21153;-71
2023/03/31 05:13:01;;;;;;;11.57;2.23;;;11.60;99.90;;;;;;5028863;28;20579;-74
2023/03/31 05:15:49;;;;;;;8.83;1.70;;;11.60;99.90;;;;;;5032969;28;20503;-72
2023/03/31 05:18:37;;;;;;;8.90;2.00;;;11.60;99.90;;;;;;5035190;28;20448;-72
2023/03/31 05:21:25;;;;;;;6.63;1.40;;;11.60;99.90;;;;;;5039332;28;20506;-72
2023/03/31 05:24:11;;;;;;;10.00;2.30;;;11.50;99.90;;;;;;5019597;28;20980;-72
2023/03/31 05:26:57;;;;;;;11.17;2.80;;;11.50;99.90;;;;;;5026522;28;20923;-72
2023/03/31 05:29:43;;;;;;;9.63;2.23;;;11.50;99.90;;;;;;5024762;28;20602;-72
2023/03/31 05:32:29;;;;;;;7.77;1.97;;;11.50;99.90;;;;;;5020130;28;20486;-74
2023/03/31 05:35:16;;;;;;;8.87;2.10;;;11.50;99.90;;;;;;5026621;28;20461;-72
2023/03/31 05:38:02;;;;;;;11.20;2.50;;;11.40;99.90;;;;;;5029788;28;20649;-72
2023/03/31 05:40:47;;;;;;;5.53;2.00;;;11.30;99.90;;;;;;5020918;28;20423;-72
2023/03/31 05:43:33;;;;;;;7.30;2.27;;;11.40;99.90;;;;;;5023415;28;20476;-72
2023/03/31 05:46:18;;;;;;;10.70;2.30;;;11.50;99.90;;;;;;5028396;28;20487;-71
2023/03/31 05:49:05;;;;;;;4.03;1.80;;;11.50;99.90;;;;;;5031759;28;20564;-71
2023/03/31 05:51:52;;;;;;;12.67;3.30;;;11.40;99.90;;;;;;5031534;28;20510;-74
2023/03/31 05:54:37;;;;;;;7.30;3.57;;;11.40;99.90;;;;;;5024225;28;20803;-72
2023/03/31 05:57:23;;;;;;;10.67;2.73;;;11.50;99.90;;;;;;5032429;28;20475;-71
2023/03/31 06:00:10;;;;;;;10.07;3.67;;;11.40;99.90;;;;;;5029638;28;20572;-72
2023/03/31 06:02:57;;;;;;;8.70;2.80;;;11.50;99.90;;;;;;5027447;28;20571;-71
2023/03/31 06:05:48;;;;;;;6.70;3.10;;;11.50;99.90;;;;;;5025505;28;20633;-71
2023/03/31 06:08:36;;;;;;;11.43;3.50;;;11.50;99.90;;;;;;5026650;28;20473;-72
2023/03/31 06:11:22;;;;;;;8.50;3.37;;;11.50;99.90;;;;;;5029548;28;20852;-72
2023/03/31 06:14:08;;;;;;;8.53;3.80;;;11.50;99.90;;;;;;5026413;28;20442;-72
2023/03/31 06:16:53;;;;;;;6.20;2.93;;;11.40;99.90;;;;;;5028830;28;20991;-72
2023/03/31 06:19:39;;;;;;;16.10;3.40;;;11.40;99.90;;;;;;5027897;28;20558;-72
2023/03/31 06:22:25;;;;;;;9.73;4.80;;;11.40;99.90;;;;;;5024242;28;20581;-72
2023/03/31 06:25:11;;;;;;;9.13;3.50;;;11.40;99.90;;;;;;5029888;28;20791;-73
2023/03/31 06:27:57;;;;;;;11.40;3.60;;;11.40;99.90;;;;;;5021441;28;20204;-72
2023/03/31 06:30:43;;;;;;;7.37;4.27;;;11.40;99.90;;;;;;5035492;28;20457;-72
2023/03/31 06:33:28;;;;;;;10.20;5.20;;;11.50;99.90;;;;;;5029314;28;20436;-72
2023/03/31 06:36:16;;;;;;;12.60;4.97;;;11.50;99.90;;;;;;5030618;28;20788;-72
2023/03/31 06:39:02;;;;;;;8.17;4.13;;;11.50;99.90;;;;;;5041719;28;20453;-72
2023/03/31 06:41:49;;;;;;;11.20;4.50;;;11.60;99.90;;;;;;5034756;28;20510;-72
2023/03/31 06:44:34;;;;;;;8.73;4.03;;;11.60;99.90;;;;;;5041007;28;20464;-71
2023/03/31 06:47:20;;;;;;;12.80;5.83;;;11.50;99.90;;;;;;5035096;28;20403;-72
2023/03/31 06:50:07;;;;;;;6.37;4.20;;;11.50;99.90;;;;;;5038468;28;20446;-72
2023/03/31 06:52:54;;;;;;;11.83;5.37;;;11.60;99.90;;;;;;5035005;28;20536;-72
2023/03/31 06:55:39;;;;;;;8.23;4.90;;;11.60;99.90;;;;;;5037444;28;20449;-73
2023/03/31 06:58:27;;;;;;;9.40;5.10;;;11.60;99.90;;;;;;5040683;28;20444;-71
2023/03/31 07:01:13;;;;;;;10.43;5.00;;;11.60;99.90;;;;;;5034878;28;20443;-71
2023/03/31 07:03:58;;;;;;;10.90;5.00;;;11.60;99.90;;;;;;5029777;28;20565;-73
2023/03/31 07:06:44;;;;;;;10.47;5.27;;;11.60;99.90;;;;;;5035228;28;20432;-72
2023/03/31 07:09:30;;;;;;;8.50;5.53;;;11.60;99.90;;;;;;5028375;28;20447;-71
2023/03/31 07:12:16;;;;;;;11.13;5.40;;;11.60;99.90;;;;;;5025870;28;20496;-73
2023/03/31 07:15:03;;;;;;;12.50;5.13;;;11.60;99.90;;;;;;5040077;28;20789;-71
2023/03/31 07:17:49;;;;;;;18.97;5.83;;;11.70;99.90;;;;;;5043028;28;20438;-71
2023/03/31 07:20:36;;;;;;;10.37;5.10;;;11.80;99.90;;;;;;5041042;28;20427;-71
2023/03/31 07:23:22;;;;;;;10.27;5.20;;;11.80;99.90;;;;;;5038817;28;20443;-72
2023/03/31 07:26:08;;;;;;;10.00;5.70;;;11.80;99.90;;;;;;5032986;28;20445;-71
2023/03/31 07:28:55;;;;;;;14.57;5.90;;;11.90;99.90;;;;;;5049313;28;20513;-72
2023/03/31 07:31:42;;;;;;;7.80;4.80;;;11.80;99.90;;;;;;5035938;28;20453;-72
2023/03/31 07:34:27;;;;;;;13.63;4.93;;;11.80;99.90;;;;;;5033609;28;20438;-71
2023/03/31 07:37:13;;;;;;;10.60;5.73;;;11.80;99.90;;;;;;5031886;28;20420;-72
2023/03/31 07:39:58;;;;;;;9.87;5.33;;;11.80;99.90;;;;;;5033354;28;20447;-71
2023/03/31 07:42:45;;;;;;;8.57;4.00;;;11.80;99.90;;;;;;5030159;28;20586;-71
2023/03/31 07:45:31;;;;;;;7.80;4.07;;;11.90;99.90;;;;;;5027907;28;20483;-72
2023/03/31 07:48:18;;;;;;;10.40;4.30;;;12.00;99.90;;;;;;5023925;28;20451;-72
2023/03/31 07:51:04;;;;;;;7.27;4.00;;;12.00;99.90;;;;;;5030598;28;20593;-72
2023/03/31 07:53:51;;;;;;;8.47;4.40;;;12.10;99.90;;;;;;5028427;28;20418;-72
2023/03/31 07:56:37;;;;;;;13.27;4.43;;;12.10;99.90;;;;;;5030778;28;20454;-72
2023/03/31 07:59:22;;;;;;;8.60;5.13;;;12.10;99.90;;;;;;5032790;28;21010;-71
2023/03/31 08:02:10;;;;;;;13.07;5.10;;;12.10;99.90;;;;;;5023101;28;20421;-72
2023/03/31 08:04:56;;;;;;;13.60;5.00;;;12.10;99.90;;;;;;5029177;28;20487;-71
2023/03/31 08:07:45;;;;;;;8.90;4.63;;;12.20;99.90;;;;;;5020653;28;20429;-71
2023/03/31 08:10:30;;;;;;;9.90;4.77;;;12.10;99.90;;;;;;5023868;28;20790;-70
2023/03/31 08:13:16;;;;;;;12.07;4.57;;;12.10;99.90;;;;;;5033914;28;20956;-70
2023/03/31 08:16:02;;;;;;;14.70;5.60;;;12.10;99.90;;;;;;5024287;28;20455;-69
2023/03/31 08:18:48;;;;;;;9.70;4.97;;;12.10;99.90;;;;;;5032233;28;21215;-69
2023/03/31 08:21:35;;;;;;;8.10;4.30;;;12.10;99.90;;;;;;5037145;28;20452;-71
2023/03/31 08:24:20;;;;;;;9.60;5.70;;;12.20;99.90;;;;;;5031792;28;20540;-74
2023/03/31 08:27:06;;;;;;;10.83;5.30;;;12.20;99.90;;;;;;5051404;23;20496;-72
2023/03/31 08:29:52;;;;;;;8.93;4.57;;;12.20;99.90;;;;;;5076579;28;20563;-75
2023/03/31 08:32:37;;;;;;;13.00;5.40;;;12.30;99.90;;;;;;5068749;28;20430;-74
2023/03/31 08:35:23;;;;;;;12.30;5.30;;;12.30;99.90;;;;;;5071856;28;21083;-75
2023/03/31 08:38:10;;;;;;;11.00;5.00;;;12.30;99.90;;;;;;5074545;28;20649;-72
2023/03/31 08:40:59;;;;;;;12.27;4.93;;;12.30;99.90;;;;;;5065517;28;20424;-74
2023/03/31 08:43:49;;;;;;;14.60;5.60;;;12.20;99.90;;;;;;5074702;28;20392;-74
2023/03/31 08:46:35;;;;;;;10.20;4.73;;;12.10;99.90;;;;;;5078719;28;20997;-74
2023/03/31 08:49:22;;;;;;;13.13;4.60;;;12.10;99.90;;;;;;5069357;28;20433;-72
2023/03/31 08:52:14;;;;;;;9.27;4.13;;;12.00;99.90;;;;;;5069770;28;20463;-74
2023/03/31 08:55:05;;;;;;;12.53;4.47;;;12.10;99.90;;;;;;5071337;28;20524;-75
2023/03/31 08:57:58;;;;;;;10.30;4.60;;;12.10;99.90;;;;;;5079856;28;20441;-74
2023/03/31 09:00:51;;;;;;;6.17;3.80;;;12.10;99.90;;;;;;5062726;28;20585;-75
2023/03/31 09:03:46;;;;;;;6.90;3.87;;;12.10;99.90;;;;;;5072610;28;21020;-75
2023/03/31 09:06:38;;;;;;;12.60;5.23;;;12.10;99.90;;;;;;5057956;28;20469;-73
2023/03/31 09:09:33;;;;;;;11.40;4.60;;;12.20;99.90;;;;;;5062379;28;20456;-74
2023/03/31 09:12:24;;;;;;;10.80;5.30;;;12.20;99.90;;;;;;5070358;28;20862;-74
2023/03/31 09:15:11;;;;;;;7.80;5.33;;;12.20;99.90;;;;;;5072609;28;20471;-74
2023/03/31 09:18:01;;;;;;;12.97;5.73;;;12.10;99.90;;;;;;5072460;28;20461;-74
2023/03/31 09:20:50;;;;;;;7.40;5.43;;;12.10;99.90;;;;;;5062833;28;20419;-73
2023/03/31 09:23:40;;;;;;;10.60;5.73;;;12.00;99.90;;;;;;5070114;28;20446;-75
2023/03/31 09:26:34;;;;;;;12.20;6.83;;;12.10;99.90;;;;;;5066108;28;20522;-73
2023/03/31 09:29:26;;;;;;;7.57;4.40;;;12.10;99.90;;;;;;5066886;28;20450;-75
2023/03/31 09:32:16;;;;;;;7.07;2.73;;;12.10;99.90;;;;;;5067536;28;20543;-75
2023/03/31 09:35:12;;;;;;;3.83;1.70;;;11.80;99.90;;;;;;5070222;28;20468;-75
2023/03/31 09:37:58;;;;;;;5.80;1.40;;;11.60;99.90;;;;;;5069533;28;20539;-75
2023/03/31 09:40:44;;;;;;;7.27;1.73;;;11.40;99.90;;;;;;5064968;28;20447;-69
2023/03/31 09:43:33;;;;;;;4.03;1.77;;;11.20;99.90;;;;;;5068644;28;20589;-75
2023/03/31 09:46:28;;;;;;;3.90;1.43;;;10.80;99.90;;;;;;5064905;28;20446;-74
2023/03/31 09:49:18;;;;;;;3.80;1.20;;;10.60;99.90;;;;;;5061583;28;20482;-74
2023/03/31 09:52:10;;;;;;;5.93;1.97;;;10.60;99.90;;;;;;5060716;28;20940;-76
2023/03/31 09:55:00;;;;;;;5.20;1.77;;;10.50;99.90;;;;;;5062534;28;20451;-76
2023/03/31 09:57:47;;;;;;;8.17;1.90;;;10.60;99.90;;;;;;5066011;28;20544;-74
2023/03/31 10:00:34;;;;;;;6.53;2.03;;;10.70;99.90;;;;;;5065386;28;20478;-74
2023/03/31 10:03:22;;;;;;;6.37;1.43;;;10.70;99.90;;;;;;5065230;28;20484;-72
2023/03/31 10:06:10;;;;;;;4.93;1.63;;;10.80;99.90;;;;;;5065707;28;20451;-74
2023/03/31 10:08:58;;;;;;;9.87;1.80;;;10.80;99.90;;;;;;5063480;28;20561;-74
2023/03/31 10:11:56;;;;;;;5.07;1.83;;;10.80;99.90;;;;;;5062542;28;20453;-75
2023/03/31 10:14:46;;;;;;;8.47;1.97;;;10.80;99.90;;;;;;5067676;28;21031;-73
2023/03/31 10:17:35;;;;;;;6.13;2.07;;;10.90;99.90;;;;;;5069628;28;20860;-74
2023/03/31 10:20:32;;;;;;;6.30;1.90;;;10.90;99.90;;;;;;5066571;28;20450;-73
2023/03/31 10:23:25;;;;;;;7.60;1.90;;;11.00;99.90;;;;;;5070344;28;20920;-75
2023/03/31 10:26:16;;;;;;;10.13;1.80;;;11.00;99.90;;;;;;5068844;28;20936;-72
2023/03/31 10:29:02;;;;;;;10.80;2.10;;;10.90;99.90;;;;;;5067030;28;20933;-74
2023/03/31 10:31:48;;;;;;;9.03;2.33;;;11.00;99.90;;;;;;5065365;28;20428;-75
2023/03/31 10:34:34;;;;;;;14.03;2.40;;;11.00;99.90;;;;;;5072731;28;20932;-75
2023/03/31 10:37:23;;;;;;;5.93;1.80;;;11.00;99.90;;;;;;5070677;28;20521;-75
2023/03/31 10:40:18;;;;;;;7.83;2.33;;;11.00;99.90;;;;;;5066884;28;20414;-73
2023/03/31 10:43:14;;;;;;;3.60;1.87;;;11.20;99.90;;;;;;5070464;28;20445;-75
2023/03/31 10:46:00;;;;;;;5.00;1.57;;;11.30;99.90;;;;;;5073982;28;20428;-73
2023/03/31 10:48:47;;;;;;;4.97;1.93;;;11.40;99.90;;;;;;5068916;28;20434;-75
2023/03/31 10:51:32;;;;;;;4.37;1.60;;;11.60;99.90;;;;;;5066220;28;20790;-74
2023/03/31 10:54:20;;;;;;;8.87;2.30;;;11.80;99.90;;;;;;5070295;28;20469;-69
2023/03/31 10:57:06;;;;;;;9.63;2.80;;;11.90;99.90;;;;;;5069896;28;20840;-72
2023/03/31 11:00:15;;;;;;;9.07;2.53;;;11.90;99.90;;;;;;5068926;28;20449;-75
2023/03/31 11:03:27;;;;;;;7.47;2.30;;;12.00;99.90;;;;;;5072924;28;20448;-75
2023/03/31 11:06:22;;;;;;;6.23;2.40;;;11.90;99.90;;;;;;5068946;28;20422;-75
2023/03/31 11:09:25;;;;;;;9.57;3.20;;;11.90;99.90;;;;;;5066666;28;20429;-74
2023/03/31 11:12:21;;;;;;;5.90;2.40;;;12.00;99.90;;;;;;5072401;28;20922;-74
2023/03/31 11:15:17;;;;;;;7.13;3.00;;;12.10;99.90;;;;;;5071469;28;20464;-74
2023/03/31 11:18:27;;;;;;;8.80;2.70;;;12.10;99.90;;;;;;5065539;28;20975;-75
2023/03/31 11:21:20;;;;;;;8.17;2.37;;;12.20;99.90;;;;;;5065418;28;20961;-74
2023/03/31 11:24:15;;;;;;;5.00;2.00;;;12.00;99.90;;;;;;5070918;28;20973;-74
2023/03/31 11:27:20;;;;;;;8.40;2.90;;;11.90;99.90;;;;;;5066677;28;20492;-72
2023/03/31 11:30:13;;;;;;;4.73;1.83;;;11.80;99.90;;;;;;5072997;28;20801;-75
2023/03/31 11:33:24;;;;;;;3.87;1.70;;;11.70;99.90;;;;;;5068982;28;20449;-73
2023/03/31 11:36:24;;;;;;;9.50;2.47;;;11.60;99.90;;;;;;5067076;28;20420;-75
2023/03/31 11:39:23;;;;;;;3.47;1.43;;;11.50;99.90;;;;;;5070069;28;20444;-72
2023/03/31 11:42:15;;;;;;;9.70;2.27;;;11.50;99.90;;;;;;5070307;28;20982;-75
2023/03/31 11:45:12;;;;;;;5.27;1.50;;;11.60;99.90;;;;;;5070439;28;20536;-74
2023/03/31 11:48:03;;;;;;;8.80;1.73;;;11.60;99.90;;;;;;5064016;28;20613;-74
2023/03/31 11:50:50;;;;;;;5.20;1.47;;;11.70;99.90;;;;;;5068564;28;20429;-72
2023/03/31 11:53:38;;;;;;;6.20;1.47;;;11.90;99.90;;;;;;5074340;28;20515;-72
2023/03/31 11:56:29;;;;;;;12.13;1.40;;;12.30;99.90;;;;;;5064684;28;21033;-75
2023/03/31 11:59:17;;;;;;;6.07;1.80;;;12.60;99.90;;;;;;5066058;28;20448;-74
2023/03/31 12:02:14;;;;;;;3.60;1.47;;;12.80;99.90;;;;;;5068719;28;20493;-75
2023/03/31 12:05:00;;;;;;;8.83;1.70;;;13.10;99.90;;;;;;5074232;28;20430;-73
2023/03/31 12:07:50;;;;;;;7.43;1.97;;;13.30;99.90;;;;;;5064075;28;20990;-75
2023/03/31 12:10:37;;;;;;;8.50;1.87;;;13.30;99.90;;;;;;5069701;28;21075;-74
2023/03/31 12:13:49;;;;;;;9.20;1.77;;;13.20;99.90;;;;;;5069034;28;20463;-74
2023/03/31 12:16:41;;;;;;;6.87;2.40;;;13.20;99.90;;;;;;5063346;28;20449;-73
2023/03/31 12:19:32;;;;;;;9.07;1.60;;;13.10;99.90;;;;;;5064602;28;20455;-74
2023/03/31 12:22:23;;;;;;;8.90;2.63;;;13.00;99.90;;;;;;5064985;28;20453;-73
2023/03/31 12:25:13;;;;;;;6.27;2.00;;;12.80;99.90;;;;;;5065389;28;20415;-74
2023/03/31 12:28:00;;;;;;;5.40;2.03;;;12.50;99.90;;;;;;5072074;28;21065;-75
2023/03/31 12:30:47;;;;;;;5.10;2.00;;;12.30;99.90;;;;;;5069987;28;20420;-74
2023/03/31 12:33:38;;;;;;;9.67;1.87;;;12.40;99.90;;;;;;5064957;28;20500;-73
2023/03/31 12:36:36;;;;;;;13.10;2.73;;;12.70;99.90;;;;;;5060855;28;20503;-74
2023/03/31 12:39:35;;;;;;;20.00;2.93;;;13.20;99.90;;;;;;5068763;28;20429;-74
2023/03/31 12:42:48;;;;;;;8.20;2.60;;;13.80;99.90;;;;;;5072535;28;20454;-73
2023/03/31 12:45:38;;;;;;;11.10;2.43;;;14.30;99.90;;;;;;5070758;28;20572;-74
2023/03/31 12:48:48;;;;;;;6.83;1.83;;;14.30;99.90;;;;;;5065402;28;20799;-74
2023/03/31 12:51:51;;;;;;;5.07;2.07;;;14.10;99.90;;;;;;5065650;28;20424;-74
2023/03/31 12:54:57;;;;;;;9.90;1.50;;;14.10;99.90;;;;;;5071017;28;20535;-74
2023/03/31 12:57:43;;;;;;;22.53;16.83;;;14.20;99.90;;;;;;5063764;28;21015;-73
2023/03/31 13:00:29;;;;;;;3.73;1.53;;;14.10;99.90;;;;;;5069806;28;20457;-75
2023/03/31 13:03:48;;;;;;;6.60;1.37;;;14.00;99.90;;;;;;5068761;28;20446;-75
2023/03/31 13:07:01;;;;;;;4.10;1.20;;;13.90;99.90;;;;;;5060599;28;20488;-74
2023/03/31 13:09:52;;;;;;;2.03;1.07;;;13.90;99.90;;;;;;5021367;28;20430;-75
2023/03/31 13:12:38;;;;;;;2.93;0.93;;;14.00;99.90;;;;;;5047796;28;20815;-74
2023/03/31 13:15:25;;;;;;;5.60;2.10;;;14.20;99.90;;;;;;5063625;28;20468;-74
2023/03/31 13:18:20;;;;;;;5.23;1.90;;;14.10;99.90;;;;;;5072870;28;21001;-74
2023/03/31 13:21:08;;;;;;;3.20;1.23;;;14.30;99.90;;;;;;5068616;28;20417;-75
2023/03/31 13:23:59;;;;;;;3.10;0.97;;;14.30;99.90;;;;;;5071846;28;20425;-73
2023/03/31 13:26:46;;;;;;;3.00;1.07;;;14.30;99.90;;;;;;5078909;28;20976;-74
2023/03/31 13:29:41;;;;;;;4.40;1.20;;;14.40;99.90;;;;;;5073638;28;20962;-75
2023/03/31 13:32:27;;;;;;;6.87;1.80;;;14.30;99.90;;;;;;5060882;28;20601;-75
2023/03/31 13:35:20;;;;;;;3.70;1.20;;;14.20;99.90;;;;;;5066799;28;21119;-75
2023/03/31 13:38:14;;;;;;;6.13;1.23;;;14.10;99.90;;;;;;5071321;28;20543;-75
2023/03/31 13:41:22;;;;;;;5.60;1.57;;;13.90;99.90;;;;;;5064349;28;20711;-75
2023/03/31 13:44:40;;;;;;;5.33;1.73;;;13.80;99.90;;;;;;5073404;28;20871;-75
2023/03/31 13:47:56;;;;;;;5.00;1.70;;;13.80;99.90;;;;;;5071633;28;20960;-71
2023/03/31 13:50:57;;;;;;;12.17;5.17;;;13.70;99.90;;;;;;5073531;28;20482;-73
2023/03/31 13:54:07;;;;;;;16.97;3.20;;;13.60;99.90;;;;;;5071359;28;20522;-75
2023/03/31 13:57:20;;;;;;;8.53;1.77;;;13.60;99.90;;;;;;5067536;28;20537;-75
2023/03/31 14:00:39;;;;;;;4.53;1.40;;;13.50;99.90;;;;;;5074198;28;20546;-75
2023/03/31 14:03:37;;;;;;;7.07;1.03;;;13.40;99.90;;;;;;5070463;28;20409;-74
2023/03/31 14:06:30;;;;;;;5.70;1.20;;;13.30;99.90;;;;;;5070311;28;20422;-74
2023/03/31 14:09:24;;;;;;;5.03;1.33;;;13.30;99.90;;;;;;5068410;28;20807;-74
2023/03/31 14:12:21;;;;;;;6.93;2.03;;;13.30;99.90;;;;;;5065951;28;20436;-74
2023/03/31 14:15:17;;;;;;;4.40;1.40;;;13.40;99.90;;;;;;5071197;28;20834;-75
2023/03/31 14:18:04;;;;;;;10.33;2.07;;;13.20;99.90;;;;;;5074113;28;20840;-75
2023/03/31 14:21:08;;;;;;;6.67;2.20;;;13.10;99.90;;;;;;5066181;28;20454;-74
2023/03/31 14:24:02;;;;;;;6.60;2.07;;;13.10;99.90;;;;;;5067757;28;20449;-73
2023/03/31 14:27:01;;;;;;;11.60;1.87;;;13.00;99.90;;;;;;5074049;28;20468;-75
2023/03/31 14:29:56;;;;;;;8.23;1.73;;;13.00;99.90;;;;;;5066372;28;20538;-75
2023/03/31 14:32:54;;;;;;;4.70;1.17;;;13.00;99.90;;;;;;5066307;28;20457;-71
2023/03/31 14:35:47;;;;;;;3.77;1.20;;;12.90;99.90;;;;;;5074393;28;20480;-75
2023/03/31 14:38:33;;;;;;;6.73;1.53;;;12.80;99.90;;;;;;5071088;28;20417;-75
2023/03/31 14:41:28;;;;;;;3.80;1.40;;;12.90;99.90;;;;;;5060845;28;20442;-75
2023/03/31 14:44:18;;;;;;;3.93;1.00;;;12.90;99.90;;;;;;5066582;28;20474;-75